sensor_id;sensor_type;location;lat;lon;timestamp;P1;durP1;ratioP1;P2;durP2;ratioP2
40849;SDS011;26571;41.610;25.380;2023-03-01T00:02:16;0.50;;;0.50;;
40849;SDS011;26571;41.610;25.380;2023-03-01T00:04:42;1.40;;;0.85;;
40849;SDS011;26571;41.610;25.380;2023-03-01T00:07:07;0.60;;;0.60;;
40849;SDS011;26571;41.610;25.380;2023-03-01T00:09:32;0.80;;;0.80;;
40849;SDS011;26571;41.610;25.380;2023-03-01T00:11:58;0.70;;;0.70;;
40849;SDS011;26571;41.610;25.380;2023-03-01T00:14:23;1.10;;;0.90;;
40849;SDS011;26571;41.610;25.380;2023-03-01T00:16:49;1.20;;;1.13;;
40849;SDS011;26571;41.610;25.380;2023-03-01T00:19:16;0.68;;;0.60;;
40849;SDS011;26571;41.610;25.380;2023-03-01T00:21:43;0.50;;;0.50;;
40849;SDS011;26571;41.610;25.380;2023-03-01T00:24:09;0.60;;;0.60;;
40849;SDS011;26571;41.610;25.380;2023-03-01T00:26:35;0.60;;;0.60;;
40849;SDS011;26571;41.610;25.380;2023-03-01T00:29:01;0.70;;;0.70;;
40849;SDS011;26571;41.610;25.380;2023-03-01T00:31:27;0.70;;;0.70;;
40849;SDS011;26571;41.610;25.380;2023-03-01T00:33:56;0.60;;;0.60;;
40849;SDS011;26571;41.610;25.380;2023-03-01T00:36:24;0.77;;;0.77;;
40849;SDS011;26571;41.610;25.380;2023-03-01T00:38:54;0.68;;;0.68;;
40849;SDS011;26571;41.610;25.380;2023-03-01T00:41:20;0.88;;;0.88;;
40849;SDS011;26571;41.610;25.380;2023-03-01T00:43:47;1.27;;;1.27;;
40849;SDS011;26571;41.610;25.380;2023-03-01T00:46:16;1.58;;;1.40;;
40849;SDS011;26571;41.610;25.380;2023-03-01T00:48:43;1.20;;;1.20;;
40849;SDS011;26571;41.610;25.380;2023-03-01T00:51:10;1.20;;;1.20;;
40849;SDS011;26571;41.610;25.380;2023-03-01T00:53:38;1.30;;;1.30;;
40849;SDS011;26571;41.610;25.380;2023-03-01T00:56:05;1.40;;;1.35;;
40849;SDS011;26571;41.610;25.380;2023-03-01T00:58:31;1.17;;;1.13;;
40849;SDS011;26571;41.610;25.380;2023-03-01T01:00:57;1.40;;;1.40;;
40849;SDS011;26571;41.610;25.380;2023-03-01T01:03:23;1.77;;;1.67;;
40849;SDS011;26571;41.610;25.380;2023-03-01T01:05:50;1.27;;;1.27;;
40849;SDS011;26571;41.610;25.380;2023-03-01T01:08:17;1.25;;;1.25;;
40849;SDS011;26571;41.610;25.380;2023-03-01T01:10:43;1.67;;;1.63;;
40849;SDS011;26571;41.610;25.380;2023-03-01T01:13:09;1.42;;;1.40;;
40849;SDS011;26571;41.610;25.380;2023-03-01T01:15:35;1.60;;;1.55;;
40849;SDS011;26571;41.610;25.380;2023-03-01T01:18:01;1.20;;;1.20;;
40849;SDS011;26571;41.610;25.380;2023-03-01T01:20:27;2.10;;;2.00;;
40849;SDS011;26571;41.610;25.380;2023-03-01T01:22:53;2.45;;;2.35;;
40849;SDS011;26571;41.610;25.380;2023-03-01T01:25:18;2.60;;;2.50;;
40849;SDS011;26571;41.610;25.380;2023-03-01T01:27:44;2.13;;;2.03;;
40849;SDS011;26571;41.610;25.380;2023-03-01T01:30:10;2.05;;;2.05;;
40849;SDS011;26571;41.610;25.380;2023-03-01T01:32:35;1.70;;;1.70;;
40849;SDS011;26571;41.610;25.380;2023-03-01T01:35:01;1.40;;;1.40;;
40849;SDS011;26571;41.610;25.380;2023-03-01T01:37:26;1.83;;;1.83;;
40849;SDS011;26571;41.610;25.380;2023-03-01T01:39:59;1.10;;;1.10;;
40849;SDS011;26571;41.610;25.380;2023-03-01T01:42:26;1.67;;;1.40;;
40849;SDS011;26571;41.610;25.380;2023-03-01T01:48:02;1.17;;;1.17;;
40849;SDS011;26571;41.610;25.380;2023-03-01T01:50:32;1.05;;;1.05;;
40849;SDS011;26571;41.610;25.380;2023-03-01T01:53:03;1.45;;;1.38;;
40849;SDS011;26571;41.610;25.380;2023-03-01T01:55:35;1.50;;;1.50;;
40849;SDS011;26571;41.610;25.380;2023-03-01T01:58:05;1.48;;;0.93;;
40849;SDS011;26571;41.610;25.380;2023-03-01T02:00:34;1.05;;;0.90;;
40849;SDS011;26571;41.610;25.380;2023-03-01T02:03:01;1.10;;;1.10;;
40849;SDS011;26571;41.610;25.380;2023-03-01T02:05:42;1.77;;;1.77;;
40849;SDS011;26571;41.610;25.380;2023-03-01T02:08:13;1.10;;;1.10;;
40849;SDS011;26571;41.610;25.380;2023-03-01T02:10:41;1.35;;;1.33;;
40849;SDS011;26571;41.610;25.380;2023-03-01T02:13:07;1.15;;;1.15;;
40849;SDS011;26571;41.610;25.380;2023-03-01T02:15:33;1.60;;;1.50;;
40849;SDS011;26571;41.610;25.380;2023-03-01T02:18:01;1.58;;;1.40;;
40849;SDS011;26571;41.610;25.380;2023-03-01T02:22:53;1.80;;;1.70;;
40849;SDS011;26571;41.610;25.380;2023-03-01T02:25:22;1.60;;;1.50;;
40849;SDS011;26571;41.610;25.380;2023-03-01T02:30:41;1.35;;;1.35;;
40849;SDS011;26571;41.610;25.380;2023-03-01T02:33:28;1.50;;;1.50;;
40849;SDS011;26571;41.610;25.380;2023-03-01T02:35:57;1.85;;;1.70;;
40849;SDS011;26571;41.610;25.380;2023-03-01T02:38:25;1.17;;;1.17;;
40849;SDS011;26571;41.610;25.380;2023-03-01T02:40:52;1.80;;;1.70;;
40849;SDS011;26571;41.610;25.380;2023-03-01T02:43:19;3.53;;;1.77;;
40849;SDS011;26571;41.610;25.380;2023-03-01T02:45:49;1.98;;;1.88;;
40849;SDS011;26571;41.610;25.380;2023-03-01T02:48:17;3.10;;;2.20;;
40849;SDS011;26571;41.610;25.380;2023-03-01T02:53:28;1.67;;;1.63;;
40849;SDS011;26571;41.610;25.380;2023-03-01T02:56:04;1.85;;;1.75;;
40849;SDS011;26571;41.610;25.380;2023-03-01T02:58:30;1.95;;;1.85;;
40849;SDS011;26571;41.610;25.380;2023-03-01T03:00:55;1.77;;;1.70;;
40849;SDS011;26571;41.610;25.380;2023-03-01T03:03:21;3.15;;;2.97;;
40849;SDS011;26571;41.610;25.380;2023-03-01T03:05:47;2.25;;;2.15;;
40849;SDS011;26571;41.610;25.380;2023-03-01T03:08:13;2.35;;;2.20;;
40849;SDS011;26571;41.610;25.380;2023-03-01T03:10:48;2.47;;;2.08;;
40849;SDS011;26571;41.610;25.380;2023-03-01T03:13:14;2.08;;;1.85;;
40849;SDS011;26571;41.610;25.380;2023-03-01T03:15:41;1.85;;;1.75;;
40849;SDS011;26571;41.610;25.380;2023-03-01T03:18:08;2.38;;;2.17;;
40849;SDS011;26571;41.610;25.380;2023-03-01T03:20:36;2.50;;;2.30;;
40849;SDS011;26571;41.610;25.380;2023-03-01T03:23:04;2.28;;;2.08;;
40849;SDS011;26571;41.610;25.380;2023-03-01T03:25:30;2.53;;;2.33;;
40849;SDS011;26571;41.610;25.380;2023-03-01T03:27:55;2.20;;;2.00;;
40849;SDS011;26571;41.610;25.380;2023-03-01T03:30:22;2.10;;;1.90;;
40849;SDS011;26571;41.610;25.380;2023-03-01T03:32:52;2.47;;;2.28;;
40849;SDS011;26571;41.610;25.380;2023-03-01T03:35:51;2.22;;;2.10;;
40849;SDS011;26571;41.610;25.380;2023-03-01T03:38:12;1.90;;;1.80;;
40849;SDS011;26571;41.610;25.380;2023-03-01T03:40:52;3.30;;;2.42;;
40849;SDS011;26571;41.610;25.380;2023-03-01T03:43:29;1.77;;;1.67;;
40849;SDS011;26571;41.610;25.380;2023-03-01T03:45:56;2.40;;;2.20;;
40849;SDS011;26571;41.610;25.380;2023-03-01T03:48:22;3.40;;;2.53;;
40849;SDS011;26571;41.610;25.380;2023-03-01T03:50:50;2.10;;;1.97;;
40849;SDS011;26571;41.610;25.380;2023-03-01T03:53:17;2.05;;;1.95;;
40849;SDS011;26571;41.610;25.380;2023-03-01T03:55:43;2.83;;;2.45;;
40849;SDS011;26571;41.610;25.380;2023-03-01T03:58:09;4.32;;;4.03;;
40849;SDS011;26571;41.610;25.380;2023-03-01T04:00:37;1.83;;;1.73;;
40849;SDS011;26571;41.610;25.380;2023-03-01T04:03:07;3.03;;;2.13;;
40849;SDS011;26571;41.610;25.380;2023-03-01T04:05:33;1.70;;;1.30;;
40849;SDS011;26571;41.610;25.380;2023-03-01T04:07:59;1.50;;;1.40;;
40849;SDS011;26571;41.610;25.380;2023-03-01T04:10:28;1.60;;;1.10;;
40849;SDS011;26571;41.610;25.380;2023-03-01T04:12:55;0.75;;;0.75;;
40849;SDS011;26571;41.610;25.380;2023-03-01T04:15:21;3.33;;;1.10;;
40849;SDS011;26571;41.610;25.380;2023-03-01T04:17:49;1.00;;;1.00;;
40849;SDS011;26571;41.610;25.380;2023-03-01T04:20:17;1.38;;;1.30;;
40849;SDS011;26571;41.610;25.380;2023-03-01T04:22:50;1.13;;;1.00;;
40849;SDS011;26571;41.610;25.380;2023-03-01T04:25:17;0.82;;;0.80;;
40849;SDS011;26571;41.610;25.380;2023-03-01T04:27:42;1.15;;;0.88;;
40849;SDS011;26571;41.610;25.380;2023-03-01T04:30:08;0.80;;;0.80;;
40849;SDS011;26571;41.610;25.380;2023-03-01T04:32:34;1.92;;;0.85;;
40849;SDS011;26571;41.610;25.380;2023-03-01T04:35:00;1.27;;;0.90;;
40849;SDS011;26571;41.610;25.380;2023-03-01T04:37:25;0.93;;;0.93;;
40849;SDS011;26571;41.610;25.380;2023-03-01T04:39:51;1.98;;;0.95;;
40849;SDS011;26571;41.610;25.380;2023-03-01T04:42:17;2.00;;;0.80;;
40849;SDS011;26571;41.610;25.380;2023-03-01T04:44:43;1.55;;;0.80;;
40849;SDS011;26571;41.610;25.380;2023-03-01T04:47:09;1.02;;;1.02;;
40849;SDS011;26571;41.610;25.380;2023-03-01T04:49:35;4.47;;;1.65;;
40849;SDS011;26571;41.610;25.380;2023-03-01T04:52:00;1.45;;;0.82;;
40849;SDS011;26571;41.610;25.380;2023-03-01T04:54:30;1.60;;;1.50;;
40849;SDS011;26571;41.610;25.380;2023-03-01T04:59:22;3.38;;;1.33;;
40849;SDS011;26571;41.610;25.380;2023-03-01T05:01:48;2.67;;;1.10;;
40849;SDS011;26571;41.610;25.380;2023-03-01T05:04:14;1.17;;;1.02;;
40849;SDS011;26571;41.610;25.380;2023-03-01T05:06:39;1.02;;;1.02;;
40849;SDS011;26571;41.610;25.380;2023-03-01T05:09:05;2.22;;;1.40;;
40849;SDS011;26571;41.610;25.380;2023-03-01T05:11:31;1.75;;;1.65;;
40849;SDS011;26571;41.610;25.380;2023-03-01T05:14:01;3.28;;;2.20;;
40849;SDS011;26571;41.610;25.380;2023-03-01T05:16:27;3.08;;;2.10;;
40849;SDS011;26571;41.610;25.380;2023-03-01T05:18:53;3.83;;;3.15;;
40849;SDS011;26571;41.610;25.380;2023-03-01T05:23:46;3.40;;;2.80;;
40849;SDS011;26571;41.610;25.380;2023-03-01T05:26:12;3.83;;;2.05;;
40849;SDS011;26571;41.610;25.380;2023-03-01T05:28:37;4.05;;;3.75;;
40849;SDS011;26571;41.610;25.380;2023-03-01T05:31:03;3.60;;;2.20;;
40849;SDS011;26571;41.610;25.380;2023-03-01T05:33:34;3.00;;;2.53;;
40849;SDS011;26571;41.610;25.380;2023-03-01T05:36:02;5.10;;;2.85;;
40849;SDS011;26571;41.610;25.380;2023-03-01T05:38:27;5.38;;;4.68;;
40849;SDS011;26571;41.610;25.380;2023-03-01T05:40:53;6.45;;;4.85;;
40849;SDS011;26571;41.610;25.380;2023-03-01T05:43:18;3.35;;;2.95;;
40849;SDS011;26571;41.610;25.380;2023-03-01T05:45:44;3.58;;;2.45;;
40849;SDS011;26571;41.610;25.380;2023-03-01T05:48:10;3.92;;;2.63;;
40849;SDS011;26571;41.610;25.380;2023-03-01T05:50:45;5.15;;;3.10;;
40849;SDS011;26571;41.610;25.380;2023-03-01T05:53:13;4.72;;;3.10;;
40849;SDS011;26571;41.610;25.380;2023-03-01T05:55:44;3.88;;;3.55;;
40849;SDS011;26571;41.610;25.380;2023-03-01T05:58:13;5.22;;;4.75;;
40849;SDS011;26571;41.610;25.380;2023-03-01T06:00:41;2.58;;;2.38;;
40849;SDS011;26571;41.610;25.380;2023-03-01T06:03:09;2.35;;;1.83;;
40849;SDS011;26571;41.610;25.380;2023-03-01T06:05:35;2.50;;;2.30;;
40849;SDS011;26571;41.610;25.380;2023-03-01T06:08:01;2.72;;;2.53;;
40849;SDS011;26571;41.610;25.380;2023-03-01T06:10:28;4.45;;;3.35;;
40849;SDS011;26571;41.610;25.380;2023-03-01T06:12:54;5.45;;;2.67;;
40849;SDS011;26571;41.610;25.380;2023-03-01T06:15:19;5.50;;;3.15;;
40849;SDS011;26571;41.610;25.380;2023-03-01T06:17:45;3.60;;;3.03;;
40849;SDS011;26571;41.610;25.380;2023-03-01T06:20:19;7.22;;;3.50;;
40849;SDS011;26571;41.610;25.380;2023-03-01T06:22:46;1.88;;;1.70;;
40849;SDS011;26571;41.610;25.380;2023-03-01T06:25:13;4.63;;;3.25;;
40849;SDS011;26571;41.610;25.380;2023-03-01T06:27:39;1.58;;;1.38;;
40849;SDS011;26571;41.610;25.380;2023-03-01T06:30:06;4.57;;;1.57;;
40849;SDS011;26571;41.610;25.380;2023-03-01T06:32:33;2.67;;;1.85;;
40849;SDS011;26571;41.610;25.380;2023-03-01T06:34:58;1.73;;;1.40;;
40849;SDS011;26571;41.610;25.380;2023-03-01T06:37:24;8.23;;;3.55;;
40849;SDS011;26571;41.610;25.380;2023-03-01T06:39:50;4.35;;;4.05;;
40849;SDS011;26571;41.610;25.380;2023-03-01T06:42:16;6.90;;;4.90;;
40849;SDS011;26571;41.610;25.380;2023-03-01T06:44:41;3.80;;;3.33;;
40849;SDS011;26571;41.610;25.380;2023-03-01T06:47:07;3.00;;;2.67;;
40849;SDS011;26571;41.610;25.380;2023-03-01T06:49:32;3.40;;;3.20;;
40849;SDS011;26571;41.610;25.380;2023-03-01T06:51:58;1.67;;;1.52;;
40849;SDS011;26571;41.610;25.380;2023-03-01T06:54:23;3.42;;;2.85;;
40849;SDS011;26571;41.610;25.380;2023-03-01T06:56:49;4.35;;;3.78;;
40849;SDS011;26571;41.610;25.380;2023-03-01T06:59:15;5.28;;;4.43;;
40849;SDS011;26571;41.610;25.380;2023-03-01T07:01:41;28.10;;;19.38;;
40849;SDS011;26571;41.610;25.380;2023-03-01T07:04:08;11.83;;;9.47;;
40849;SDS011;26571;41.610;25.380;2023-03-01T07:06:35;18.20;;;12.82;;
40849;SDS011;26571;41.610;25.380;2023-03-01T07:09:00;13.15;;;10.00;;
40849;SDS011;26571;41.610;25.380;2023-03-01T07:11:25;6.53;;;5.85;;
40849;SDS011;26571;41.610;25.380;2023-03-01T07:13:51;5.95;;;5.43;;
40849;SDS011;26571;41.610;25.380;2023-03-01T07:16:16;5.97;;;4.93;;
40849;SDS011;26571;41.610;25.380;2023-03-01T07:18:42;3.05;;;2.40;;
40849;SDS011;26571;41.610;25.380;2023-03-01T07:21:08;3.92;;;2.88;;
40849;SDS011;26571;41.610;25.380;2023-03-01T07:23:36;2.88;;;2.58;;
40849;SDS011;26571;41.610;25.380;2023-03-01T07:26:01;2.17;;;1.90;;
40849;SDS011;26571;41.610;25.380;2023-03-01T07:28:27;7.32;;;4.85;;
40849;SDS011;26571;41.610;25.380;2023-03-01T07:30:53;6.47;;;5.07;;
40849;SDS011;26571;41.610;25.380;2023-03-01T07:33:19;4.60;;;1.95;;
40849;SDS011;26571;41.610;25.380;2023-03-01T07:35:44;3.85;;;2.30;;
40849;SDS011;26571;41.610;25.380;2023-03-01T07:38:09;2.88;;;1.92;;
40849;SDS011;26571;41.610;25.380;2023-03-01T07:40:35;2.22;;;2.13;;
40849;SDS011;26571;41.610;25.380;2023-03-01T07:43:01;1.70;;;1.33;;
40849;SDS011;26571;41.610;25.380;2023-03-01T07:45:26;7.57;;;3.05;;
40849;SDS011;26571;41.610;25.380;2023-03-01T07:47:53;3.10;;;2.90;;
40849;SDS011;26571;41.610;25.380;2023-03-01T07:50:20;2.03;;;1.65;;
40849;SDS011;26571;41.610;25.380;2023-03-01T07:52:46;1.73;;;1.35;;
40849;SDS011;26571;41.610;25.380;2023-03-01T07:55:12;1.52;;;1.10;;
40849;SDS011;26571;41.610;25.380;2023-03-01T07:57:37;5.97;;;2.33;;
40849;SDS011;26571;41.610;25.380;2023-03-01T08:00:03;2.20;;;2.03;;
40849;SDS011;26571;41.610;25.380;2023-03-01T08:02:29;2.35;;;2.15;;
40849;SDS011;26571;41.610;25.380;2023-03-01T08:04:55;2.88;;;1.95;;
40849;SDS011;26571;41.610;25.380;2023-03-01T08:07:21;1.48;;;1.38;;
40849;SDS011;26571;41.610;25.380;2023-03-01T08:09:46;2.28;;;1.23;;
40849;SDS011;26571;41.610;25.380;2023-03-01T08:12:12;1.88;;;1.65;;
40849;SDS011;26571;41.610;25.380;2023-03-01T08:14:37;3.95;;;2.58;;
40849;SDS011;26571;41.610;25.380;2023-03-01T08:17:03;4.50;;;3.53;;
40849;SDS011;26571;41.610;25.380;2023-03-01T08:19:28;2.33;;;2.13;;
40849;SDS011;26571;41.610;25.380;2023-03-01T08:21:54;3.03;;;2.92;;
40849;SDS011;26571;41.610;25.380;2023-03-01T08:24:20;4.07;;;3.78;;
40849;SDS011;26571;41.610;25.380;2023-03-01T08:26:45;1.88;;;1.70;;
40849;SDS011;26571;41.610;25.380;2023-03-01T08:29:11;1.15;;;1.10;;
40849;SDS011;26571;41.610;25.380;2023-03-01T08:31:37;1.45;;;1.27;;
40849;SDS011;26571;41.610;25.380;2023-03-01T08:34:05;1.00;;;0.98;;
40849;SDS011;26571;41.610;25.380;2023-03-01T08:36:34;1.85;;;1.40;;
40849;SDS011;26571;41.610;25.380;2023-03-01T08:39:02;3.97;;;3.28;;
40849;SDS011;26571;41.610;25.380;2023-03-01T08:41:28;5.47;;;4.40;;
40849;SDS011;26571;41.610;25.380;2023-03-01T08:43:54;5.00;;;4.50;;
40849;SDS011;26571;41.610;25.380;2023-03-01T08:46:24;3.47;;;3.20;;
40849;SDS011;26571;41.610;25.380;2023-03-01T08:48:50;2.72;;;2.53;;
40849;SDS011;26571;41.610;25.380;2023-03-01T08:51:17;2.15;;;1.23;;
40849;SDS011;26571;41.610;25.380;2023-03-01T08:56:09;4.57;;;3.20;;
40849;SDS011;26571;41.610;25.380;2023-03-01T08:58:35;2.40;;;2.30;;
40849;SDS011;26571;41.610;25.380;2023-03-01T09:01:06;3.67;;;3.38;;
40849;SDS011;26571;41.610;25.380;2023-03-01T09:03:36;2.58;;;2.38;;
40849;SDS011;26571;41.610;25.380;2023-03-01T09:06:02;1.30;;;1.30;;
40849;SDS011;26571;41.610;25.380;2023-03-01T09:08:29;2.60;;;2.42;;
40849;SDS011;26571;41.610;25.380;2023-03-01T09:10:55;5.68;;;2.22;;
40849;SDS011;26571;41.610;25.380;2023-03-01T09:13:20;2.03;;;1.70;;
40849;SDS011;26571;41.610;25.380;2023-03-01T09:15:48;2.50;;;2.30;;
40849;SDS011;26571;41.610;25.380;2023-03-01T09:18:14;2.05;;;1.95;;
40849;SDS011;26571;41.610;25.380;2023-03-01T09:20:39;4.15;;;3.80;;
40849;SDS011;26571;41.610;25.380;2023-03-01T09:23:05;4.10;;;3.63;;
40849;SDS011;26571;41.610;25.380;2023-03-01T09:25:30;3.63;;;3.33;;
40849;SDS011;26571;41.610;25.380;2023-03-01T09:27:56;4.38;;;3.85;;
40849;SDS011;26571;41.610;25.380;2023-03-01T09:30:21;9.20;;;5.00;;
40849;SDS011;26571;41.610;25.380;2023-03-01T09:32:47;3.53;;;3.22;;
40849;SDS011;26571;41.610;25.380;2023-03-01T09:35:12;4.10;;;3.50;;
40849;SDS011;26571;41.610;25.380;2023-03-01T09:37:38;4.75;;;4.03;;
40849;SDS011;26571;41.610;25.380;2023-03-01T09:40:10;6.32;;;3.80;;
40849;SDS011;26571;41.610;25.380;2023-03-01T09:42:45;5.78;;;4.60;;
40849;SDS011;26571;41.610;25.380;2023-03-01T09:48:12;2.72;;;2.55;;
40849;SDS011;26571;41.610;25.380;2023-03-01T09:50:47;3.42;;;3.13;;
40849;SDS011;26571;41.610;25.380;2023-03-01T09:53:14;6.95;;;4.57;;
40849;SDS011;26571;41.610;25.380;2023-03-01T09:55:44;4.03;;;3.60;;
40849;SDS011;26571;41.610;25.380;2023-03-01T10:00:46;2.50;;;2.30;;
40849;SDS011;26571;41.610;25.380;2023-03-01T10:03:27;2.50;;;1.92;;
40849;SDS011;26571;41.610;25.380;2023-03-01T10:08:31;0.80;;;0.80;;
40849;SDS011;26571;41.610;25.380;2023-03-01T10:11:03;2.30;;;2.10;;
40849;SDS011;26571;41.610;25.380;2023-03-01T10:16:10;3.20;;;2.65;;
40849;SDS011;26571;41.610;25.380;2023-03-01T10:18:40;2.30;;;1.95;;
40849;SDS011;26571;41.610;25.380;2023-03-01T10:21:14;3.95;;;2.47;;
40849;SDS011;26571;41.610;25.380;2023-03-01T10:23:42;3.55;;;3.28;;
40849;SDS011;26571;41.610;25.380;2023-03-01T10:31:32;2.17;;;1.23;;
40849;SDS011;26571;41.610;25.380;2023-03-01T10:34:02;1.98;;;1.70;;
40849;SDS011;26571;41.610;25.380;2023-03-01T10:36:33;1.30;;;0.90;;
40849;SDS011;26571;41.610;25.380;2023-03-01T10:38:59;1.98;;;1.20;;
40849;SDS011;26571;41.610;25.380;2023-03-01T10:41:35;2.35;;;1.27;;
40849;SDS011;26571;41.610;25.380;2023-03-01T10:44:34;2.22;;;1.55;;
40849;SDS011;26571;41.610;25.380;2023-03-01T10:47:02;3.03;;;2.38;;
40849;SDS011;26571;41.610;25.380;2023-03-01T10:49:27;3.38;;;3.08;;
40849;SDS011;26571;41.610;25.380;2023-03-01T10:51:53;3.38;;;3.13;;
40849;SDS011;26571;41.610;25.380;2023-03-01T10:56:51;2.95;;;2.65;;
40849;SDS011;26571;41.610;25.380;2023-03-01T10:59:26;3.75;;;2.67;;
40849;SDS011;26571;41.610;25.380;2023-03-01T11:04:56;5.35;;;4.82;;
40849;SDS011;26571;41.610;25.380;2023-03-01T11:07:42;14.00;;;7.65;;
40849;SDS011;26571;41.610;25.380;2023-03-01T11:10:23;4.53;;;2.33;;
40849;SDS011;26571;41.610;25.380;2023-03-01T11:12:49;5.63;;;2.83;;
40849;SDS011;26571;41.610;25.380;2023-03-01T11:18:26;7.57;;;5.93;;
40849;SDS011;26571;41.610;25.380;2023-03-01T11:20:54;20.35;;;10.20;;
40849;SDS011;26571;41.610;25.380;2023-03-01T11:23:20;6.50;;;4.10;;
40849;SDS011;26571;41.610;25.380;2023-03-01T11:26:00;5.05;;;4.40;;
40849;SDS011;26571;41.610;25.380;2023-03-01T11:28:30;9.02;;;4.40;;
40849;SDS011;26571;41.610;25.380;2023-03-01T11:30:57;9.48;;;5.18;;
40849;SDS011;26571;41.610;25.380;2023-03-01T11:33:34;2.88;;;2.67;;
40849;SDS011;26571;41.610;25.380;2023-03-01T11:38:38;3.42;;;2.83;;
40849;SDS011;26571;41.610;25.380;2023-03-01T11:41:06;6.35;;;2.75;;
40849;SDS011;26571;41.610;25.380;2023-03-01T11:54:21;3.13;;;2.92;;
40849;SDS011;26571;41.610;25.380;2023-03-01T11:57:10;3.20;;;2.90;;
40849;SDS011;26571;41.610;25.380;2023-03-01T12:02:34;4.53;;;4.15;;
40849;SDS011;26571;41.610;25.380;2023-03-01T12:23:51;6.45;;;5.85;;
40849;SDS011;26571;41.610;25.380;2023-03-01T12:34:35;6.45;;;5.68;;
40849;SDS011;26571;41.610;25.380;2023-03-01T12:37:08;10.63;;;6.22;;
40849;SDS011;26571;41.610;25.380;2023-03-01T12:39:41;9.63;;;7.38;;
40849;SDS011;26571;41.610;25.380;2023-03-01T12:50:40;2.50;;;2.40;;
40849;SDS011;26571;41.610;25.380;2023-03-01T12:53:20;2.25;;;1.98;;
40849;SDS011;26571;41.610;25.380;2023-03-01T12:55:47;2.10;;;2.00;;
40849;SDS011;26571;41.610;25.380;2023-03-01T13:03:31;3.72;;;3.42;;
40849;SDS011;26571;41.610;25.380;2023-03-01T13:06:11;8.05;;;3.78;;
40849;SDS011;26571;41.610;25.380;2023-03-01T13:08:55;4.85;;;4.45;;
40849;SDS011;26571;41.610;25.380;2023-03-01T13:11:29;5.60;;;3.70;;
40849;SDS011;26571;41.610;25.380;2023-03-01T13:16:44;4.95;;;3.55;;
40849;SDS011;26571;41.610;25.380;2023-03-01T13:19:17;5.93;;;4.90;;
40849;SDS011;26571;41.610;25.380;2023-03-01T13:21:47;16.60;;;14.98;;
40849;SDS011;26571;41.610;25.380;2023-03-01T13:24:27;6.95;;;6.03;;
40849;SDS011;26571;41.610;25.380;2023-03-01T13:29:45;9.00;;;8.23;;
40849;SDS011;26571;41.610;25.380;2023-03-01T13:32:27;8.25;;;7.60;;
40849;SDS011;26571;41.610;25.380;2023-03-01T13:35:40;6.13;;;5.63;;
40849;SDS011;26571;41.610;25.380;2023-03-01T13:37:45;5.60;;;5.15;;
40849;SDS011;26571;41.610;25.380;2023-03-01T13:42:44;7.80;;;6.72;;
40849;SDS011;26571;41.610;25.380;2023-03-01T13:50:50;8.40;;;6.28;;
40849;SDS011;26571;41.610;25.380;2023-03-01T13:53:18;5.53;;;4.95;;
40849;SDS011;26571;41.610;25.380;2023-03-01T13:55:48;4.97;;;4.57;;
40849;SDS011;26571;41.610;25.380;2023-03-01T13:58:25;5.60;;;4.97;;
40849;SDS011;26571;41.610;25.380;2023-03-01T14:01:06;6.63;;;5.00;;
40849;SDS011;26571;41.610;25.380;2023-03-01T14:03:34;6.88;;;5.95;;
40849;SDS011;26571;41.610;25.380;2023-03-01T14:06:16;9.38;;;6.85;;
40849;SDS011;26571;41.610;25.380;2023-03-01T14:08:45;4.10;;;3.42;;
40849;SDS011;26571;41.610;25.380;2023-03-01T14:14:04;5.97;;;5.35;;
40849;SDS011;26571;41.610;25.380;2023-03-01T14:19:27;6.90;;;5.70;;
40849;SDS011;26571;41.610;25.380;2023-03-01T14:22:03;8.50;;;7.45;;
40849;SDS011;26571;41.610;25.380;2023-03-01T14:24:44;8.90;;;8.20;;
40849;SDS011;26571;41.610;25.380;2023-03-01T14:27:14;7.53;;;6.75;;
40849;SDS011;26571;41.610;25.380;2023-03-01T14:29:40;7.15;;;6.38;;
40849;SDS011;26571;41.610;25.380;2023-03-01T14:34:46;8.95;;;7.80;;
40849;SDS011;26571;41.610;25.380;2023-03-01T14:37:33;10.98;;;9.60;;
40849;SDS011;26571;41.610;25.380;2023-03-01T14:40:00;13.68;;;9.60;;
40849;SDS011;26571;41.610;25.380;2023-03-01T14:42:33;7.95;;;7.03;;
40849;SDS011;26571;41.610;25.380;2023-03-01T14:45:01;8.90;;;8.00;;
40849;SDS011;26571;41.610;25.380;2023-03-01T14:47:30;10.18;;;9.10;;
40849;SDS011;26571;41.610;25.380;2023-03-01T14:50:01;8.23;;;7.43;;
40849;SDS011;26571;41.610;25.380;2023-03-01T14:52:37;13.18;;;8.02;;
40849;SDS011;26571;41.610;25.380;2023-03-01T14:55:05;6.63;;;5.18;;
40849;SDS011;26571;41.610;25.380;2023-03-01T14:57:42;5.40;;;5.00;;
40849;SDS011;26571;41.610;25.380;2023-03-01T15:00:19;5.43;;;4.88;;
40849;SDS011;26571;41.610;25.380;2023-03-01T15:02:48;5.70;;;5.07;;
40849;SDS011;26571;41.610;25.380;2023-03-01T15:05:18;4.72;;;4.35;;
40849;SDS011;26571;41.610;25.380;2023-03-01T15:07:49;6.20;;;4.40;;
40849;SDS011;26571;41.610;25.380;2023-03-01T15:10:23;7.05;;;6.35;;
40849;SDS011;26571;41.610;25.380;2023-03-01T15:12:50;4.78;;;4.43;;
40849;SDS011;26571;41.610;25.380;2023-03-01T15:18:03;6.13;;;4.55;;
40849;SDS011;26571;41.610;25.380;2023-03-01T15:20:49;5.20;;;4.78;;
40849;SDS011;26571;41.610;25.380;2023-03-01T15:23:20;8.35;;;7.55;;
40849;SDS011;26571;41.610;25.380;2023-03-01T15:25:51;5.95;;;5.35;;
40849;SDS011;26571;41.610;25.380;2023-03-01T15:28:25;6.30;;;5.65;;
40849;SDS011;26571;41.610;25.380;2023-03-01T15:33:40;16.30;;;11.13;;
40849;SDS011;26571;41.610;25.380;2023-03-01T15:39:05;8.35;;;7.47;;
40849;SDS011;26571;41.610;25.380;2023-03-01T15:41:53;9.48;;;7.32;;
40849;SDS011;26571;41.610;25.380;2023-03-01T15:44:30;9.77;;;8.80;;
40849;SDS011;26571;41.610;25.380;2023-03-01T15:46:58;12.18;;;10.90;;
40849;SDS011;26571;41.610;25.380;2023-03-01T15:51:55;8.40;;;7.50;;
40849;SDS011;26571;41.610;25.380;2023-03-01T15:54:21;6.97;;;6.20;;
40849;SDS011;26571;41.610;25.380;2023-03-01T15:56:49;11.93;;;9.38;;
40849;SDS011;26571;41.610;25.380;2023-03-01T15:59:16;15.30;;;10.23;;
40849;SDS011;26571;41.610;25.380;2023-03-01T16:01:42;16.25;;;10.45;;
40849;SDS011;26571;41.610;25.380;2023-03-01T16:04:10;10.32;;;6.88;;
40849;SDS011;26571;41.610;25.380;2023-03-01T16:06:38;12.70;;;10.02;;
40849;SDS011;26571;41.610;25.380;2023-03-01T16:09:04;8.63;;;7.30;;
40849;SDS011;26571;41.610;25.380;2023-03-01T16:11:29;9.68;;;7.47;;
40849;SDS011;26571;41.610;25.380;2023-03-01T16:13:57;13.00;;;10.65;;
40849;SDS011;26571;41.610;25.380;2023-03-01T16:16:23;11.63;;;9.18;;
40849;SDS011;26571;41.610;25.380;2023-03-01T16:18:48;9.35;;;8.38;;
40849;SDS011;26571;41.610;25.380;2023-03-01T16:21:14;7.82;;;7.07;;
40849;SDS011;26571;41.610;25.380;2023-03-01T16:23:44;10.07;;;8.75;;
40849;SDS011;26571;41.610;25.380;2023-03-01T16:26:11;6.60;;;5.97;;
40849;SDS011;26571;41.610;25.380;2023-03-01T16:28:36;6.93;;;6.32;;
40849;SDS011;26571;41.610;25.380;2023-03-01T16:31:02;7.13;;;5.95;;
40849;SDS011;26571;41.610;25.380;2023-03-01T16:33:27;6.80;;;6.13;;
40849;SDS011;26571;41.610;25.380;2023-03-01T16:35:53;6.43;;;5.82;;
40849;SDS011;26571;41.610;25.380;2023-03-01T16:38:18;7.20;;;6.50;;
40849;SDS011;26571;41.610;25.380;2023-03-01T16:40:47;6.20;;;5.70;;
40849;SDS011;26571;41.610;25.380;2023-03-01T16:43:14;6.75;;;6.15;;
40849;SDS011;26571;41.610;25.380;2023-03-01T16:45:40;10.35;;;8.55;;
40849;SDS011;26571;41.610;25.380;2023-03-01T16:48:09;8.95;;;8.07;;
40849;SDS011;26571;41.610;25.380;2023-03-01T16:50:35;11.10;;;9.20;;
40849;SDS011;26571;41.610;25.380;2023-03-01T16:53:01;7.07;;;6.38;;
40849;SDS011;26571;41.610;25.380;2023-03-01T16:55:27;7.85;;;7.05;;